ETNN

Nörvenich Air Base

Airport
ICAO code
ETNN
Summary
ICAO Region
EUR
ICAO Territory
Location

Nörvenich, North Rhine-Westphalia

Serving
Nörvenich
Elevation
384 ft
Coordinates
50° 49' 54" N , 6° 39' 30" E
Metar
Observation
ETNN 071820Z 24004KT 9999 FEW260 BKN320 12/08 Q1019 BLU+
Station
Noervenich
Date/Time
2022-10-07 18:20:00
Wind direction
240°
Wind speed
04 kts
Lowest cloud amount
few clouds
Temperature
12°C
Dew point
8°C
Humidity
76%
QNH
1019 hPa
Weather condition
n/a

Nörvenich Air Base (Fliegerhorst Nörvenich) is a German Air Force air base in Germany.

Runways

Designator Length Width Surface Rops
7/25 2439 45 ASP No/No

Airport map

Aerial View

SKYbrary Partners:

Safety knowledge contributed by: